Time,TemperatureF,DewpointF,PressureIn,WindDirection,WindDirectionDegrees,WindSpeedMPH,WindSpeedGustMPH,Humidity,HourlyPrecipIn,Conditions,Clouds,dailyrainin,SolarRadiationWatts/m^2,SoftwareType,DateUTC
2013-06-10 00:04:00,59.9,52.7,29.51,WNW,302,4.0,9.0,77,0.00,,,0.00,0,WeatherCatV1.15B25,2013-06-10 07:04:00,
2013-06-10 00:09:00,59.8,52.6,29.51,WNW,293,4.0,6.0,77,0.00,,,0.00,0,WeatherCatV1.15B25,2013-06-10 07:09:00,
2013-06-10 00:14:00,59.6,52.7,29.60,NW,311,4.0,7.0,78,0.00,,,0.00,0,WeatherCatV1.15B25,2013-06-10 07:14:00,
2013-06-10 00:19:00,59.5,52.6,29.60,NW,308,4.0,7.0,78,0.00,,,0.00,0,WeatherCatV1.15B25,2013-06-10 07:19:00,
2013-06-10 00:24:00,59.3,52.4,29.60,NW,305,4.0,6.0,78,0.00,,,0.00,0,WeatherCatV1.15B25,2013-06-10 07:24:00,
2013-06-10 00:29:00,59.2,52.7,29.60,NW,307,0.0,3.0,79,0.00,,,0.00,0,WeatherCatV1.15B25,2013-06-10 07:29:00,
2013-06-10 00:34:00,59.2,52.7,29.60,NW,307,3.0,5.0,79,0.00,,,0.00,0,WeatherCatV1.15B25,2013-06-10 07:34:00,
2013-06-10 00:39:00,59.2,52.7,29.60,NW,307,0.0,4.0,79,0.00,,,0.00,0,WeatherCatV1.15B25,2013-06-10 07:39:00,
2013-06-10 00:44:00,59.2,52.7,29.60,NW,307,0.0,2.0,79,0.00,,,0.00,0,WeatherCatV1.15B25,2013-06-10 07:44:00,
2013-06-10 00:49:00,59.2,52.7,29.60,NW,307,2.0,3.0,79,0.00,,,0.00,0,WeatherCatV1.15B25,2013-06-10 07:49:00,
2013-06-10 00:54:00,59.2,52.7,29.60,NW,316,3.0,3.0,79,0.00,,,0.00,0,WeatherCatV1.15B25,2013-06-10 07:54:00,
2013-06-10 00:59:00,59.0,52.5,29.59,NW,317,3.0,3.0,79,0.00,,,0.00,0,WeatherCatV1.15B25,2013-06-10 07:59:00,
2013-06-10 01:04:00,59.0,52.1,29.59,NW,317,0.0,0.0,78,0.00,,,0.00,0,WeatherCatV1.15B25,2013-06-10 08:04:00,
2013-06-10 01:09:00,59.0,52.1,29.59,NW,317,0.0,0.0,78,0.00,,,0.00,0,WeatherCatV1.15B25,2013-06-10 08:09:00,
2013-06-10 01:14:00,59.0,52.5,29.60,NW,317,0.0,0.0,79,0.00,,,0.00,0,WeatherCatV1.15B25,2013-06-10 08:14:00,
2013-06-10 01:19:00,58.9,52.0,29.60,NW,317,0.0,1.0,78,0.00,,,0.00,0,WeatherCatV1.15B25,2013-06-10 08:19:00,
2013-06-10 01:24:00,58.9,52.0,29.60,NW,317,0.0,0.0,78,0.00,,,0.00,0,WeatherCatV1.15B25,2013-06-10 08:24:00,
2013-06-10 01:29:00,58.9,51.7,29.60,NW,316,0.0,0.0,77,0.00,,,0.00,0,WeatherCatV1.15B25,2013-06-10 08:29:00,
2013-06-10 01:34:00,59.0,52.1,29.60,NW,316,0.0,0.0,78,0.00,,,0.00,0,WeatherCatV1.15B25,2013-06-10 08:34:00,
2013-06-10 01:39:00,59.0,52.1,29.60,NW,316,0.0,0.0,78,0.00,,,0.00,0,WeatherCatV1.15B25,2013-06-10 08:39:00,
2013-06-10 01:44:00,58.9,51.7,29.60,NW,316,0.0,1.0,77,0.00,,,0.00,0,WeatherCatV1.15B25,2013-06-10 08:44:00,
2013-06-10 01:49:00,59.0,52.1,29.60,NW,316,0.0,0.0,78,0.00,,,0.00,0,WeatherCatV1.15B25,2013-06-10 08:49:00,
2013-06-10 01:54:00,59.2,52.3,29.60,NW,316,0.0,2.0,78,0.00,,,0.00,0,WeatherCatV1.15B25,2013-06-10 08:54:00,
2013-06-10 01:59:00,59.3,52.1,29.59,NW,316,3.0,3.0,77,0.00,,,0.00,0,WeatherCatV1.15B25,2013-06-10 08:59:00,
2013-06-10 02:04:00,59.3,52.1,29.59,NW,316,3.0,4.0,77,0.00,,,0.00,0,WeatherCatV1.15B25,2013-06-10 09:04:00,
2013-06-10 02:09:00,59.5,52.3,29.59,NW,314,3.0,4.0,77,0.00,,,0.00,0,WeatherCatV1.15B25,2013-06-10 09:09:00,
2013-06-10 02:14:00,59.5,52.3,29.62,WNW,298,4.0,6.0,77,0.00,,,0.00,0,WeatherCatV1.15B25,2013-06-10 09:14:00,
2013-06-10 02:19:00,59.5,52.3,29.62,WNW,299,5.0,7.0,77,0.00,,,0.00,0,WeatherCatV1.15B25,2013-06-10 09:19:00,
2013-06-10 02:24:00,59.5,52.3,29.62,WNW,299,5.0,7.0,77,0.00,,,0.00,0,WeatherCatV1.15B25,2013-06-10 09:24:00,
2013-06-10 02:29:00,59.3,51.7,29.62,NW,305,4.0,5.0,76,0.00,,,0.00,0,WeatherCatV1.15B25,2013-06-10 09:29:00,
2013-06-10 02:34:00,59.3,51.7,29.62,NW,307,4.0,5.0,76,0.00,,,0.00,0,WeatherCatV1.15B25,2013-06-10 09:34:00,
2013-06-10 02:39:00,59.2,52.0,29.62,WNW,293,6.0,7.0,77,0.00,,,0.00,0,WeatherCatV1.15B25,2013-06-10 09:39:00,
2013-06-10 02:44:00,59.0,51.4,29.62,NW,304,5.0,6.0,76,0.00,,,0.00,0,WeatherCatV1.15B25,2013-06-10 09:44:00,
2013-06-10 02:49:00,58.9,51.7,29.62,WNW,293,5.0,6.0,77,0.00,,,0.00,0,WeatherCatV1.15B25,2013-06-10 09:49:00,
2013-06-10 02:54:00,58.7,51.9,29.62,WNW,293,5.0,6.0,78,0.00,,,0.00,0,WeatherCatV1.15B25,2013-06-10 09:54:00,
2013-06-10 02:59:00,58.6,52.1,29.61,WNW,301,3.0,10.0,79,0.00,,,0.00,0,WeatherCatV1.15B25,2013-06-10 09:59:00,
2013-06-10 03:04:00,58.3,51.8,29.61,NW,307,6.0,8.0,79,0.00,,,0.00,0,WeatherCatV1.15B25,2013-06-10 10:04:00,
2013-06-10 03:09:00,58.0,51.5,29.61,WNW,303,5.0,9.0,79,0.00,,,0.00,0,WeatherCatV1.15B25,2013-06-10 10:09:00,
2013-06-10 03:14:00,57.6,51.5,29.58,NW,310,5.0,11.0,80,0.00,,,0.00,0,WeatherCatV1.15B25,2013-06-10 10:14:00,
2013-06-10 03:19:00,57.2,51.4,29.58,WNW,283,9.0,11.0,81,0.00,,,0.00,0,WeatherCatV1.15B25,2013-06-10 10:19:00,
2013-06-10 03:24:00,56.9,51.5,29.58,NW,305,7.0,11.0,82,0.00,,,0.00,0,WeatherCatV1.15B25,2013-06-10 10:24:00,
2013-06-10 03:29:00,56.7,51.3,29.59,WNW,303,7.0,10.0,82,0.00,,,0.00,0,WeatherCatV1.15B25,2013-06-10 10:29:00,
2013-06-10 03:34:00,56.6,51.5,29.59,WNW,293,9.0,11.0,83,0.00,,,0.00,0,WeatherCatV1.15B25,2013-06-10 10:34:00,
2013-06-10 03:39:00,56.5,51.4,29.59,WNW,288,9.0,11.0,83,0.00,,,0.00,0,WeatherCatV1.15B25,2013-06-10 10:39:00,
2013-06-10 03:44:00,56.3,51.2,29.59,North,351,3.0,6.0,83,0.00,,,0.00,0,WeatherCatV1.15B25,2013-06-10 10:44:00,
2013-06-10 03:49:00,56.2,51.1,29.59,NW,306,11.0,11.0,83,0.00,,,0.00,0,WeatherCatV1.15B25,2013-06-10 10:49:00,
2013-06-10 03:54:00,56.3,50.9,29.59,NW,304,7.0,12.0,82,0.00,,,0.00,0,WeatherCatV1.15B25,2013-06-10 10:54:00,
2013-06-10 03:59:00,56.6,50.2,29.58,WNW,303,11.0,14.0,79,0.00,,,0.00,0,WeatherCatV1.15B25,2013-06-10 10:59:00,
2013-06-10 04:04:00,56.7,48.5,29.58,NW,312,13.0,14.0,74,0.00,,,0.00,0,WeatherCatV1.15B25,2013-06-10 11:04:00,
2013-06-10 04:09:00,57.3,48.0,29.58,WNW,283,13.0,17.0,71,0.00,,,0.00,0,WeatherCatV1.15B25,2013-06-10 11:09:00,
2013-06-10 04:14:00,57.8,48.1,29.58,NW,311,5.0,14.0,70,0.00,,,0.00,0,WeatherCatV1.15B25,2013-06-10 11:14:00,
2013-06-10 04:19:00,58.0,47.1,29.58,NW,305,6.0,14.0,67,0.00,,,0.00,0,WeatherCatV1.15B25,2013-06-10 11:19:00,
2013-06-10 04:24:00,58.0,46.7,29.58,WNW,293,11.0,14.0,66,0.00,,,0.00,0,WeatherCatV1.15B25,2013-06-10 11:24:00,
2013-06-10 04:29:00,58.1,45.6,29.58,North,1,6.0,12.0,63,0.00,,,0.00,0,WeatherCatV1.15B25,2013-06-10 11:29:00,
2013-06-10 04:34:00,58.3,45.8,29.58,NW,318,4.0,12.0,63,0.00,,,0.00,0,WeatherCatV1.15B25,2013-06-10 11:34:00,
2013-06-10 04:39:00,58.3,44.9,29.58,NW,308,6.0,14.0,61,0.00,,,0.00,0,WeatherCatV1.15B25,2013-06-10 11:39:00,
2013-06-10 04:44:00,58.3,46.6,29.58,NW,309,7.0,12.0,65,0.00,,,0.00,0,WeatherCatV1.15B25,2013-06-10 11:44:00,
2013-06-10 04:49:00,58.1,46.4,29.58,WNW,288,2.0,11.0,65,0.00,,,0.00,0,WeatherCatV1.15B25,2013-06-10 11:49:00,
2013-06-10 04:54:00,58.0,45.1,29.58,WNW,293,3.0,13.0,62,0.00,,,0.00,0,WeatherCatV1.15B25,2013-06-10 11:54:00,
2013-06-10 04:59:00,58.0,48.3,29.57,WNW,283,8.0,12.0,70,0.00,,,0.00,0,WeatherCatV1.15B25,2013-06-10 11:59:00,
2013-06-10 05:04:00,57.5,48.5,29.57,WNW,297,10.0,13.0,72,0.00,,,0.00,0,WeatherCatV1.15B25,2013-06-10 12:04:00,
2013-06-10 05:09:00,57.0,49.2,29.57,WNW,301,7.0,11.0,75,0.00,,,0.00,0,WeatherCatV1.15B25,2013-06-10 12:09:00,
2013-06-10 05:14:00,56.2,49.4,29.59,NW,305,10.0,12.0,78,0.00,,,0.00,0,WeatherCatV1.15B25,2013-06-10 12:14:00,
2013-06-10 05:19:00,55.4,49.3,29.59,WNW,288,6.0,9.0,80,0.00,,,0.00,0,WeatherCatV1.15B25,2013-06-10 12:19:00,
2013-06-10 05:24:00,54.8,49.4,29.59,WNW,293,10.0,11.0,82,0.00,,,0.00,0,WeatherCatV1.15B25,2013-06-10 12:24:00,
2013-06-10 05:29:00,54.4,49.0,29.60,WNW,299,7.0,14.0,82,0.00,,,0.00,0,WeatherCatV1.15B25,2013-06-10 12:29:00,
2013-06-10 05:34:00,54.2,47.8,29.60,WNW,293,9.0,11.0,79,0.00,,,0.00,0,WeatherCatV1.15B25,2013-06-10 12:34:00,
2013-06-10 05:39:00,54.2,46.1,29.60,WNW,293,7.0,12.0,74,0.00,,,0.00,0,WeatherCatV1.15B25,2013-06-10 12:39:00,
2013-06-10 05:44:00,54.4,44.1,29.61,WNW,301,6.0,11.0,68,0.00,,,0.00,7,WeatherCatV1.15B25,2013-06-10 12:44:00,
2013-06-10 05:49:00,54.7,43.6,29.61,WNW,299,9.0,11.0,66,0.00,,,0.00,11,WeatherCatV1.15B25,2013-06-10 12:49:00,
2013-06-10 05:54:00,55.0,43.0,29.61,WNW,293,10.0,11.0,64,0.00,,,0.00,16,WeatherCatV1.15B25,2013-06-10 12:54:00,
2013-06-10 05:59:00,55.1,42.3,29.62,WNW,283,8.0,13.0,62,0.00,,,0.00,21,WeatherCatV1.15B25,2013-06-10 12:59:00,
2013-06-10 06:04:00,55.1,42.3,29.62,WNW,297,9.0,11.0,62,0.00,,,0.00,26,WeatherCatV1.15B25,2013-06-10 13:04:00,
2013-06-10 06:09:00,55.1,41.9,29.62,NW,305,11.0,12.0,61,0.00,,,0.00,32,WeatherCatV1.15B25,2013-06-10 13:09:00,
2013-06-10 06:14:00,55.1,42.3,29.60,WNW,288,5.0,11.0,62,0.00,,,0.00,39,WeatherCatV1.15B25,2013-06-10 13:14:00,
2013-06-10 06:19:00,54.8,43.3,29.60,WNW,293,13.0,13.0,65,0.00,,,0.00,49,WeatherCatV1.15B25,2013-06-10 13:19:00,
2013-06-10 06:24:00,54.5,42.6,29.60,NW,306,7.0,11.0,64,0.00,,,0.00,60,WeatherCatV1.15B25,2013-06-10 13:24:00,
2013-06-10 06:29:00,54.4,42.1,29.61,WSW,256,4.0,12.0,63,0.00,,,0.00,74,WeatherCatV1.15B25,2013-06-10 13:29:00,
2013-06-10 06:34:00,54.5,41.3,29.61,WNW,303,7.0,10.0,61,0.00,,,0.00,83,WeatherCatV1.15B25,2013-06-10 13:34:00,
2013-06-10 06:39:00,54.8,40.3,29.61,WNW,283,8.0,13.0,58,0.00,,,0.00,93,WeatherCatV1.15B25,2013-06-10 13:39:00,
2013-06-10 06:44:00,55.1,41.0,29.60,WNW,283,7.0,10.0,59,0.00,,,0.00,107,WeatherCatV1.15B25,2013-06-10 13:44:00,
2013-06-10 06:49:00,55.4,40.4,29.60,WNW,288,7.0,12.0,57,0.00,,,0.00,121,WeatherCatV1.15B25,2013-06-10 13:49:00,
2013-06-10 06:54:00,55.6,40.2,29.60,WNW,298,9.0,13.0,56,0.00,,,0.00,137,WeatherCatV1.15B25,2013-06-10 13:54:00,
2013-06-10 06:59:00,55.9,39.5,29.61,WSW,255,5.0,12.0,54,0.00,,,0.00,148,WeatherCatV1.15B25,2013-06-10 13:59:00,
2013-06-10 07:04:00,56.2,39.8,29.61,NW,307,6.0,10.0,54,0.00,,,0.00,163,WeatherCatV1.15B25,2013-06-10 14:04:00,
2013-06-10 07:09:00,56.3,39.9,29.61,NW,310,13.0,14.0,54,0.00,,,0.00,178,WeatherCatV1.15B25,2013-06-10 14:09:00,
2013-06-10 07:14:00,56.5,40.1,29.61,WNW,283,12.0,13.0,54,0.00,,,0.00,195,WeatherCatV1.15B25,2013-06-10 14:14:00,
2013-06-10 07:19:00,56.7,39.8,29.61,WNW,293,6.0,12.0,53,0.00,,,0.00,206,WeatherCatV1.15B25,2013-06-10 14:19:00,
2013-06-10 07:24:00,56.9,39.9,29.61,WNW,288,9.0,14.0,53,0.00,,,0.00,221,WeatherCatV1.15B25,2013-06-10 14:24:00,
2013-06-10 07:29:00,57.0,40.0,29.62,WNW,302,10.0,11.0,53,0.00,,,0.00,236,WeatherCatV1.15B25,2013-06-10 14:29:00,
2013-06-10 07:34:00,57.0,41.0,29.62,WNW,301,11.0,12.0,55,0.00,,,0.00,251,WeatherCatV1.15B25,2013-06-10 14:34:00,
2013-06-10 07:39:00,57.2,41.2,29.62,WNW,299,6.0,11.0,55,0.00,,,0.00,265,WeatherCatV1.15B25,2013-06-10 14:39:00,
2013-06-10 07:44:00,57.3,41.3,29.62,WNW,297,7.0,11.0,55,0.00,,,0.00,283,WeatherCatV1.15B25,2013-06-10 14:44:00,
2013-06-10 07:49:00,57.5,41.5,29.62,NW,312,12.0,13.0,55,0.00,,,0.00,299,WeatherCatV1.15B25,2013-06-10 14:49:00,
2013-06-10 07:54:00,57.5,41.5,29.62,WNW,288,11.0,13.0,55,0.00,,,0.00,318,WeatherCatV1.15B25,2013-06-10 14:54:00,
2013-06-10 07:59:00,57.6,42.5,29.61,WNW,297,7.0,12.0,57,0.00,,,0.00,332,WeatherCatV1.15B25,2013-06-10 14:59:00,
2013-06-10 08:04:00,57.8,42.7,29.61,WNW,283,12.0,13.0,57,0.00,,,0.00,348,WeatherCatV1.15B25,2013-06-10 15:04:00,
2013-06-10 08:09:00,58.1,42.5,29.61,WNW,288,8.0,13.0,56,0.00,,,0.00,367,WeatherCatV1.15B25,2013-06-10 15:09:00,
2013-06-10 08:14:00,58.4,40.3,29.64,West,269,9.0,14.0,51,0.00,,,0.00,380,WeatherCatV1.15B25,2013-06-10 15:14:00,
2013-06-10 08:19:00,58.7,41.1,29.64,WNW,283,12.0,13.0,52,0.00,,,0.00,396,WeatherCatV1.15B25,2013-06-10 15:19:00,
2013-06-10 08:24:00,59.2,40.0,29.64,WNW,283,6.0,15.0,49,0.00,,,0.00,411,WeatherCatV1.15B25,2013-06-10 15:24:00,
2013-06-10 08:29:00,59.5,40.3,29.63,West,278,9.0,13.0,49,0.00,,,0.00,427,WeatherCatV1.15B25,2013-06-10 15:29:00,
2013-06-10 08:34:00,59.8,40.1,29.63,WNW,283,4.0,13.0,48,0.00,,,0.00,443,WeatherCatV1.15B25,2013-06-10 15:34:00,
2013-06-10 08:39:00,60.1,40.3,29.63,NW,306,7.0,10.0,48,0.00,,,0.00,457,WeatherCatV1.15B25,2013-06-10 15:39:00,
2013-06-10 08:44:00,60.4,39.5,29.63,West,277,5.0,9.0,46,0.00,,,0.00,475,WeatherCatV1.15B25,2013-06-10 15:44:00,
2013-06-10 08:49:00,60.5,39.6,29.63,WNW,293,10.0,10.0,46,0.00,,,0.00,489,WeatherCatV1.15B25,2013-06-10 15:49:00,
2013-06-10 08:54:00,60.9,38.8,29.63,WNW,283,4.0,14.0,44,0.00,,,0.00,508,WeatherCatV1.15B25,2013-06-10 15:54:00,
2013-06-10 08:59:00,61.0,38.9,29.62,WSW,251,7.0,11.0,44,0.00,,,0.00,526,WeatherCatV1.15B25,2013-06-10 15:59:00,
2013-06-10 09:04:00,61.2,38.5,29.62,WNW,283,6.0,14.0,43,0.00,,,0.00,557,WeatherCatV1.15B25,2013-06-10 16:04:00,
2013-06-10 09:09:00,61.3,37.4,29.62,NW,305,10.0,13.0,41,0.00,,,0.00,619,WeatherCatV1.15B25,2013-06-10 16:09:00,
2013-06-10 09:14:00,61.6,37.0,29.62,WNW,297,11.0,16.0,40,0.00,,,0.00,640,WeatherCatV1.15B25,2013-06-10 16:14:00,
2013-06-10 09:19:00,62.0,38.6,29.62,West,259,6.0,8.0,42,0.00,,,0.00,703,WeatherCatV1.15B25,2013-06-10 16:19:00,
2013-06-10 09:24:00,62.1,37.5,29.62,West,277,7.0,12.0,40,0.00,,,0.00,534,WeatherCatV1.15B25,2013-06-10 16:24:00,
2013-06-10 09:29:00,62.1,38.1,29.62,West,272,13.0,16.0,41,0.00,,,0.00,338,WeatherCatV1.15B25,2013-06-10 16:29:00,
2013-06-10 09:34:00,62.0,38.0,29.62,WNW,283,10.0,13.0,41,0.00,,,0.00,731,WeatherCatV1.15B25,2013-06-10 16:34:00,
2013-06-10 09:39:00,62.1,38.7,29.62,WNW,293,13.0,14.0,42,0.00,,,0.00,279,WeatherCatV1.15B25,2013-06-10 16:39:00,
2013-06-10 09:44:00,62.1,37.5,29.62,SW,228,6.0,12.0,40,0.00,,,0.00,232,WeatherCatV1.15B25,2013-06-10 16:44:00,
2013-06-10 09:49:00,62.1,38.1,29.62,WNW,297,11.0,14.0,41,0.00,,,0.00,508,WeatherCatV1.15B25,2013-06-10 16:49:00,
2013-06-10 09:54:00,62.1,36.8,29.62,WSW,255,7.0,12.0,39,0.00,,,0.00,758,WeatherCatV1.15B25,2013-06-10 16:54:00,
2013-06-10 09:59:00,62.4,37.8,29.62,WNW,293,7.0,12.0,40,0.00,,,0.00,715,WeatherCatV1.15B25,2013-06-10 16:59:00,
2013-06-10 10:04:00,62.7,35.4,29.62,WNW,283,7.0,13.0,36,0.00,,,0.00,738,WeatherCatV1.15B25,2013-06-10 17:04:00,
2013-06-10 10:09:00,63.2,37.2,29.62,WNW,288,7.0,14.0,38,0.00,,,0.00,775,WeatherCatV1.15B25,2013-06-10 17:09:00,
2013-06-10 10:14:00,63.7,38.3,29.60,WNW,300,5.0,11.0,39,0.00,,,0.00,773,WeatherCatV1.15B25,2013-06-10 17:14:00,
2013-06-10 10:19:00,63.7,36.9,29.60,West,272,5.0,15.0,37,0.00,,,0.00,780,WeatherCatV1.15B25,2013-06-10 17:19:00,
2013-06-10 10:24:00,63.7,37.6,29.60,WNW,297,6.0,7.0,38,0.00,,,0.00,807,WeatherCatV1.15B25,2013-06-10 17:24:00,
2013-06-10 10:29:00,63.9,37.8,29.60,West,266,6.0,14.0,38,0.00,,,0.00,891,WeatherCatV1.15B25,2013-06-10 17:29:00,
2013-06-10 10:34:00,64.2,37.4,29.60,WNW,283,6.0,16.0,37,0.00,,,0.00,285,WeatherCatV1.15B25,2013-06-10 17:34:00,
2013-06-10 10:39:00,63.9,35.7,29.60,WNW,283,9.0,15.0,35,0.00,,,0.00,327,WeatherCatV1.15B25,2013-06-10 17:39:00,
2013-06-10 10:44:00,63.2,35.8,29.62,NNW,334,15.0,16.0,36,0.00,,,0.00,353,WeatherCatV1.15B25,2013-06-10 17:44:00,
2013-06-10 10:49:00,62.6,36.6,29.62,WNW,283,10.0,15.0,38,0.00,,,0.00,323,WeatherCatV1.15B25,2013-06-10 17:49:00,
2013-06-10 10:54:00,62.3,35.7,29.62,SW,224,7.0,14.0,37,0.00,,,0.00,388,WeatherCatV1.15B25,2013-06-10 17:54:00,
2013-06-10 10:59:00,62.0,35.4,29.63,WSW,257,16.0,17.0,37,0.00,,,0.00,837,WeatherCatV1.15B25,2013-06-10 17:59:00,
2013-06-10 11:04:00,61.8,35.3,29.63,WSW,241,12.0,20.0,37,0.00,,,0.00,264,WeatherCatV1.15B25,2013-06-10 18:04:00,
2013-06-10 11:09:00,61.5,36.3,29.63,West,261,14.0,24.0,39,0.00,,,0.00,316,WeatherCatV1.15B25,2013-06-10 18:09:00,
2013-06-10 11:14:00,61.0,36.5,29.66,West,272,13.0,17.0,40,0.00,,,0.00,499,WeatherCatV1.15B25,2013-06-10 18:14:00,
2013-06-10 11:19:00,60.7,36.9,29.66,WNW,288,14.0,21.0,41,0.00,,,0.00,594,WeatherCatV1.15B25,2013-06-10 18:19:00,
2013-06-10 11:24:00,60.4,34.7,29.66,WNW,283,7.0,17.0,38,0.00,,,0.00,306,WeatherCatV1.15B25,2013-06-10 18:24:00,
2013-06-10 11:29:00,60.7,35.6,29.65,South,185,3.0,13.0,39,0.00,,,0.00,288,WeatherCatV1.15B25,2013-06-10 18:29:00,
2013-06-10 11:34:00,61.2,37.3,29.65,SSW,204,2.0,14.0,41,0.00,,,0.00,710,WeatherCatV1.15B25,2013-06-10 18:34:00,
2013-06-10 11:39:00,62.0,38.0,29.65,South,174,7.0,11.0,41,0.00,,,0.00,826,WeatherCatV1.15B25,2013-06-10 18:39:00,
2013-06-10 11:44:00,62.7,37.4,29.63,WSW,249,9.0,13.0,39,0.00,,,0.00,304,WeatherCatV1.15B25,2013-06-10 18:44:00,
2013-06-10 11:49:00,62.7,36.7,29.63,WSW,240,4.0,10.0,38,0.00,,,0.00,237,WeatherCatV1.15B25,2013-06-10 18:49:00,
2013-06-10 11:54:00,62.0,39.2,29.63,WSW,251,6.0,14.0,43,0.00,,,0.00,218,WeatherCatV1.15B25,2013-06-10 18:54:00,
2013-06-10 11:59:00,61.2,38.5,29.64,WSW,243,4.0,9.0,43,0.00,,,0.00,302,WeatherCatV1.15B25,2013-06-10 18:59:00,
2013-06-10 12:04:00,61.8,39.1,29.64,WNW,297,19.0,19.0,43,0.00,,,0.00,1171,WeatherCatV1.15B25,2013-06-10 19:04:00,
2013-06-10 12:09:00,62.4,39.6,29.64,West,271,9.0,18.0,43,0.00,,,0.00,1155,WeatherCatV1.15B25,2013-06-10 19:09:00,
2013-06-10 12:14:00,62.3,40.1,29.63,WSW,239,9.0,18.0,44,0.00,,,0.00,1046,WeatherCatV1.15B25,2013-06-10 19:14:00,
2013-06-10 12:19:00,61.3,41.4,29.63,WNW,283,8.0,17.0,48,0.00,,,0.00,1004,WeatherCatV1.15B25,2013-06-10 19:19:00,
2013-06-10 12:24:00,60.1,40.3,29.63,NNW,328,15.0,26.0,48,0.00,,,0.00,993,WeatherCatV1.15B25,2013-06-10 19:24:00,
2013-06-10 12:29:00,58.0,40.0,29.67,WNW,283,20.0,25.0,51,0.00,,,0.00,984,WeatherCatV1.15B25,2013-06-10 19:29:00,
2013-06-10 12:34:00,57.2,40.7,29.67,WSW,247,13.0,22.0,54,0.00,,,0.00,974,WeatherCatV1.15B25,2013-06-10 19:34:00,
2013-06-10 12:39:00,58.1,41.1,29.67,NW,305,14.0,18.0,53,0.00,,,0.00,974,WeatherCatV1.15B25,2013-06-10 19:39:00,
2013-06-10 12:44:00,58.4,40.3,29.67,NW,316,20.0,21.0,51,0.00,,,0.00,974,WeatherCatV1.15B25,2013-06-10 19:44:00,
2013-06-10 12:49:00,58.0,38.9,29.67,West,267,13.0,22.0,49,0.00,,,0.00,981,WeatherCatV1.15B25,2013-06-10 19:49:00,
2013-06-10 12:54:00,58.1,39.0,29.67,WNW,288,16.0,20.0,49,0.00,,,0.00,988,WeatherCatV1.15B25,2013-06-10 19:54:00,
2013-06-10 12:59:00,58.4,37.7,29.67,WNW,297,20.0,24.0,46,0.00,,,0.00,995,WeatherCatV1.15B25,2013-06-10 19:59:00,
2013-06-10 13:04:00,58.7,38.0,29.67,WSW,245,12.0,19.0,46,0.00,,,0.00,979,WeatherCatV1.15B25,2013-06-10 20:04:00,
2013-06-10 13:09:00,60.2,37.6,29.67,West,269,12.0,23.0,43,0.00,,,0.00,981,WeatherCatV1.15B25,2013-06-10 20:09:00,
2013-06-10 13:14:00,60.5,35.4,29.66,WNW,288,11.0,22.0,39,0.00,,,0.00,984,WeatherCatV1.15B25,2013-06-10 20:14:00,
2013-06-10 13:19:00,60.9,36.4,29.66,WNW,288,13.0,20.0,40,0.00,,,0.00,988,WeatherCatV1.15B25,2013-06-10 20:19:00,
2013-06-10 13:24:00,61.5,35.7,29.66,West,262,17.0,20.0,38,0.00,,,0.00,990,WeatherCatV1.15B25,2013-06-10 20:24:00,
2013-06-10 13:29:00,60.7,36.2,29.64,WNW,302,17.0,23.0,40,0.00,,,0.00,988,WeatherCatV1.15B25,2013-06-10 20:29:00,
2013-06-10 13:34:00,60.9,37.0,29.64,WSW,251,12.0,23.0,41,0.00,,,0.00,993,WeatherCatV1.15B25,2013-06-10 20:34:00,
2013-06-10 13:39:00,60.7,37.5,29.64,West,261,8.0,15.0,42,0.00,,,0.00,998,WeatherCatV1.15B25,2013-06-10 20:39:00,
2013-06-10 13:44:00,60.9,36.4,29.65,WNW,288,10.0,19.0,40,0.00,,,0.00,1011,WeatherCatV1.15B25,2013-06-10 20:44:00,
2013-06-10 13:49:00,60.7,34.9,29.65,NW,308,14.0,22.0,38,0.00,,,0.00,1011,WeatherCatV1.15B25,2013-06-10 20:49:00,
2013-06-10 13:54:00,60.9,31.6,29.65,West,276,21.0,23.0,33,0.00,,,0.00,1016,WeatherCatV1.15B25,2013-06-10 20:54:00,
2013-06-10 13:59:00,60.4,32.6,29.68,WNW,293,15.0,25.0,35,0.00,,,0.00,1025,WeatherCatV1.15B25,2013-06-10 20:59:00,
2013-06-10 14:04:00,62.0,34.0,29.68,WNW,303,10.0,11.0,35,0.00,,,0.00,1044,WeatherCatV1.15B25,2013-06-10 21:04:00,
2013-06-10 14:09:00,64.3,30.5,29.68,West,270,10.0,14.0,28,0.00,,,0.00,1074,WeatherCatV1.15B25,2013-06-10 21:09:00,
2013-06-10 14:14:00,62.4,30.6,29.66,WSW,257,15.0,18.0,30,0.00,,,0.00,401,WeatherCatV1.15B25,2013-06-10 21:14:00,
2013-06-10 14:19:00,61.3,31.2,29.66,WNW,303,12.0,19.0,32,0.00,,,0.00,471,WeatherCatV1.15B25,2013-06-10 21:19:00,
2013-06-10 14:24:00,60.1,30.9,29.66,West,270,8.0,16.0,33,0.00,,,0.00,485,WeatherCatV1.15B25,2013-06-10 21:24:00,
2013-06-10 14:29:00,59.3,28.7,29.69,WNW,303,10.0,22.0,31,0.00,,,0.00,253,WeatherCatV1.15B25,2013-06-10 21:29:00,
2013-06-10 14:34:00,58.3,29.3,29.69,West,259,15.0,19.0,33,0.00,,,0.00,156,WeatherCatV1.15B25,2013-06-10 21:34:00,
2013-06-10 14:39:00,57.6,31.5,29.69,WSW,258,5.0,21.0,37,0.00,,,0.00,118,WeatherCatV1.15B25,2013-06-10 21:39:00,
2013-06-10 14:44:00,57.0,31.6,29.72,West,270,12.0,19.0,38,0.00,,,0.00,111,WeatherCatV1.15B25,2013-06-10 21:44:00,
2013-06-10 14:49:00,56.3,33.5,29.72,West,273,8.0,13.0,42,0.00,,,0.00,127,WeatherCatV1.15B25,2013-06-10 21:49:00,
2013-06-10 14:54:00,55.4,35.5,29.72,West,274,8.0,16.0,47,0.00,,,0.00,174,WeatherCatV1.15B25,2013-06-10 21:54:00,
2013-06-10 14:59:00,54.7,35.9,29.73,West,264,11.0,13.0,49,0.00,,,0.00,229,WeatherCatV1.15B25,2013-06-10 21:59:00,
2013-06-10 15:04:00,54.4,35.1,29.73,WSW,252,11.0,17.0,48,0.00,,,0.00,260,WeatherCatV1.15B25,2013-06-10 22:04:00,
2013-06-10 15:09:00,54.4,36.2,29.73,West,262,6.0,12.0,50,0.00,,,0.00,264,WeatherCatV1.15B25,2013-06-10 22:09:00,
2013-06-10 15:14:00,54.5,35.7,29.75,WNW,300,11.0,16.0,49,0.00,,,0.00,267,WeatherCatV1.15B25,2013-06-10 22:14:00,
2013-06-10 15:19:00,54.7,36.9,29.75,West,272,10.0,21.0,51,0.00,,,0.00,221,WeatherCatV1.15B25,2013-06-10 22:19:00,
2013-06-10 15:24:00,54.8,38.0,29.75,WNW,293,13.0,17.0,53,0.00,,,0.00,165,WeatherCatV1.15B25,2013-06-10 22:24:00,
2013-06-10 15:29:00,54.8,38.9,29.74,WNW,293,10.0,14.0,55,0.00,,,0.00,113,WeatherCatV1.15B25,2013-06-10 22:29:00,
2013-06-10 15:34:00,54.2,39.7,29.74,West,275,8.0,15.0,58,0.00,,,0.00,114,WeatherCatV1.15B25,2013-06-10 22:34:00,
2013-06-10 15:39:00,53.8,41.9,29.74,SW,236,9.0,14.0,64,0.00,,,0.00,118,WeatherCatV1.15B25,2013-06-10 22:39:00,
2013-06-10 15:44:00,53.2,41.7,29.75,West,261,7.0,9.0,65,0.00,,,0.00,125,WeatherCatV1.15B25,2013-06-10 22:44:00,
2013-06-10 15:49:00,52.9,41.9,29.75,WNW,283,6.0,9.0,66,0.00,,,0.00,139,WeatherCatV1.15B25,2013-06-10 22:49:00,
2013-06-10 15:54:00,52.8,42.5,29.75,NW,305,5.0,10.0,68,0.00,,,0.00,139,WeatherCatV1.15B25,2013-06-10 22:54:00,
2013-06-10 15:59:00,52.5,41.9,29.74,WNW,288,4.0,9.0,67,0.00,,,0.00,155,WeatherCatV1.15B25,2013-06-10 22:59:00,
2013-06-10 16:04:00,52.3,41.7,29.74,WNW,283,10.0,13.0,67,0.00,,,0.00,176,WeatherCatV1.15B25,2013-06-10 23:04:00,
2013-06-10 16:09:00,52.3,42.1,29.74,West,277,10.0,13.0,68,0.00,,,0.00,142,WeatherCatV1.15B25,2013-06-10 23:09:00,
2013-06-10 16:14:00,52.3,42.4,29.75,West,262,7.0,11.0,69,0.00,,,0.00,155,WeatherCatV1.15B25,2013-06-10 23:14:00,
2013-06-10 16:19:00,52.2,41.6,29.75,NW,310,12.0,18.0,67,0.00,,,0.00,149,WeatherCatV1.15B25,2013-06-10 23:19:00,
2013-06-10 16:24:00,52.2,41.2,29.75,WNW,293,12.0,14.0,66,0.00,,,0.00,116,WeatherCatV1.15B25,2013-06-10 23:24:00,
2013-06-10 16:29:00,52.0,41.4,29.75,WNW,300,12.0,14.0,67,0.00,,,0.00,97,WeatherCatV1.15B25,2013-06-10 23:29:00,
2013-06-10 16:34:00,52.0,41.8,29.75,West,265,3.0,9.0,68,0.00,,,0.00,135,WeatherCatV1.15B25,2013-06-10 23:34:00,
2013-06-10 16:39:00,51.9,42.1,29.75,West,272,9.0,12.0,69,0.00,,,0.00,160,WeatherCatV1.15B25,2013-06-10 23:39:00,
2013-06-10 16:44:00,51.9,42.4,29.75,West,260,10.0,12.0,70,0.00,,,0.00,141,WeatherCatV1.15B25,2013-06-10 23:44:00,
2013-06-10 16:49:00,51.7,42.6,29.75,WNW,283,5.0,6.0,71,0.00,,,0.00,183,WeatherCatV1.15B25,2013-06-10 23:49:00,
2013-06-10 16:54:00,51.7,42.6,29.75,WNW,288,10.0,12.0,71,0.00,,,0.00,216,WeatherCatV1.15B25,2013-06-10 23:54:00,
2013-06-10 16:59:00,51.7,42.2,29.75,WNW,283,6.0,12.0,70,0.00,,,0.00,283,WeatherCatV1.15B25,2013-06-10 23:59:00,
2013-06-10 17:04:00,52.0,42.5,29.75,WNW,283,6.0,13.0,70,0.00,,,0.00,353,WeatherCatV1.15B25,2013-06-11 00:04:00,
2013-06-10 17:09:00,52.3,42.4,29.75,West,268,12.0,13.0,69,0.00,,,0.00,397,WeatherCatV1.15B25,2013-06-11 00:09:00,
2013-06-10 17:14:00,52.8,42.9,29.75,WNW,293,7.0,16.0,69,0.00,,,0.00,513,WeatherCatV1.15B25,2013-06-11 00:14:00,
2013-06-10 17:19:00,53.1,42.4,29.75,WNW,297,13.0,18.0,67,0.00,,,0.00,552,WeatherCatV1.15B25,2013-06-11 00:19:00,
2013-06-10 17:24:00,53.8,42.3,29.75,WNW,297,5.0,18.0,65,0.00,,,0.00,548,WeatherCatV1.15B25,2013-06-11 00:24:00,
2013-06-10 17:29:00,54.4,42.5,29.75,WNW,303,19.0,19.0,64,0.00,,,0.00,592,WeatherCatV1.15B25,2013-06-11 00:29:00,
2013-06-10 17:34:00,54.7,42.4,29.75,WNW,283,12.0,21.0,63,0.00,,,0.00,522,WeatherCatV1.15B25,2013-06-11 00:34:00,
2013-06-10 17:39:00,54.4,42.5,29.75,West,269,10.0,17.0,64,0.00,,,0.00,304,WeatherCatV1.15B25,2013-06-11 00:39:00,
2013-06-10 17:44:00,54.5,43.0,29.74,WNW,293,15.0,15.0,65,0.00,,,0.00,464,WeatherCatV1.15B25,2013-06-11 00:44:00,
2013-06-10 17:49:00,54.5,42.6,29.74,WNW,283,6.0,22.0,64,0.00,,,0.00,209,WeatherCatV1.15B25,2013-06-11 00:49:00,
2013-06-10 17:54:00,54.4,42.9,29.74,WNW,293,13.0,19.0,65,0.00,,,0.00,378,WeatherCatV1.15B25,2013-06-11 00:54:00,
2013-06-10 17:59:00,54.4,42.9,29.75,WNW,298,10.0,12.0,65,0.00,,,0.00,341,WeatherCatV1.15B25,2013-06-11 00:59:00,
2013-06-10 18:04:00,54.2,42.7,29.75,NW,307,10.0,22.0,65,0.00,,,0.00,281,WeatherCatV1.15B25,2013-06-11 01:04:00,
2013-06-10 18:09:00,53.9,42.8,29.75,NW,316,15.0,20.0,66,0.00,,,0.00,276,WeatherCatV1.15B25,2013-06-11 01:09:00,
2013-06-10 18:14:00,53.9,42.8,29.74,WNW,293,18.0,18.0,66,0.00,,,0.00,265,WeatherCatV1.15B25,2013-06-11 01:14:00,
2013-06-10 18:19:00,53.8,43.1,29.74,WNW,303,11.0,16.0,67,0.00,,,0.00,218,WeatherCatV1.15B25,2013-06-11 01:19:00,
2013-06-10 18:24:00,53.6,43.3,29.74,West,271,13.0,13.0,68,0.00,,,0.00,207,WeatherCatV1.15B25,2013-06-11 01:24:00,
2013-06-10 18:29:00,53.5,43.6,29.73,NW,309,4.0,10.0,69,0.00,,,0.00,207,WeatherCatV1.15B25,2013-06-11 01:29:00,
2013-06-10 18:34:00,53.5,43.6,29.73,NW,317,7.0,12.0,69,0.00,,,0.00,211,WeatherCatV1.15B25,2013-06-11 01:34:00,
2013-06-10 18:39:00,53.3,43.4,29.73,NW,316,15.0,17.0,69,0.00,,,0.00,218,WeatherCatV1.15B25,2013-06-11 01:39:00,
2013-06-10 18:44:00,53.5,43.6,29.73,WNW,297,14.0,17.0,69,0.00,,,0.00,216,WeatherCatV1.15B25,2013-06-11 01:44:00,
2013-06-10 18:49:00,53.5,43.6,29.73,WNW,301,16.0,18.0,69,0.00,,,0.00,216,WeatherCatV1.15B25,2013-06-11 01:49:00,
2013-06-10 18:54:00,53.3,42.6,29.73,WNW,293,13.0,20.0,67,0.00,,,0.00,97,WeatherCatV1.15B25,2013-06-11 01:54:00,
2013-06-10 18:59:00,53.3,43.0,29.76,WNW,283,9.0,17.0,68,0.00,,,0.00,79,WeatherCatV1.15B25,2013-06-11 01:59:00,
2013-06-10 19:04:00,53.1,42.8,29.76,WNW,297,4.0,10.0,68,0.00,,,0.00,63,WeatherCatV1.15B25,2013-06-11 02:04:00,
2013-06-10 19:09:00,52.9,43.0,29.76,WNW,283,8.0,13.0,69,0.00,,,0.00,47,WeatherCatV1.15B25,2013-06-11 02:09:00,
2013-06-10 19:14:00,52.6,43.1,29.75,WNW,288,11.0,11.0,70,0.00,,,0.00,39,WeatherCatV1.15B25,2013-06-11 02:14:00,
2013-06-10 19:19:00,52.5,42.6,29.75,WNW,283,6.0,12.0,69,0.00,,,0.00,33,WeatherCatV1.15B25,2013-06-11 02:19:00,
2013-06-10 19:24:00,52.3,42.4,29.75,WNW,288,6.0,14.0,69,0.00,,,0.00,33,WeatherCatV1.15B25,2013-06-11 02:24:00,
2013-06-10 19:29:00,52.2,42.7,29.75,WNW,302,9.0,14.0,70,0.00,,,0.00,30,WeatherCatV1.15B25,2013-06-11 02:29:00,
2013-06-10 19:34:00,52.0,42.5,29.75,WNW,301,11.0,16.0,70,0.00,,,0.00,28,WeatherCatV1.15B25,2013-06-11 02:34:00,
2013-06-10 19:39:00,52.0,41.4,29.75,WNW,302,11.0,19.0,67,0.00,,,0.00,23,WeatherCatV1.15B25,2013-06-11 02:39:00,
2013-06-10 19:44:00,52.0,42.1,29.75,NW,312,11.0,15.0,69,0.00,,,0.00,21,WeatherCatV1.15B25,2013-06-11 02:44:00,
2013-06-10 19:49:00,51.9,42.4,29.75,WNW,297,11.0,15.0,70,0.00,,,0.00,18,WeatherCatV1.15B25,2013-06-11 02:49:00,
2013-06-10 19:54:00,51.7,41.9,29.75,NW,308,14.0,20.0,69,0.00,,,0.00,14,WeatherCatV1.15B25,2013-06-11 02:54:00,
2013-06-10 19:59:00,51.7,41.9,29.75,WNW,288,9.0,21.0,69,0.00,,,0.00,12,WeatherCatV1.15B25,2013-06-11 02:59:00,
2013-06-10 20:04:00,51.6,41.8,29.75,WNW,288,11.0,21.0,69,0.00,,,0.00,11,WeatherCatV1.15B25,2013-06-11 03:04:00,
2013-06-10 20:09:00,51.6,41.8,29.75,NNW,337,8.0,23.0,69,0.00,,,0.00,12,WeatherCatV1.15B25,2013-06-11 03:09:00,
2013-06-10 20:14:00,51.4,40.8,29.73,WNW,288,16.0,22.0,67,0.00,,,0.00,11,WeatherCatV1.15B25,2013-06-11 03:14:00,
2013-06-10 20:19:00,51.4,41.9,29.73,WNW,299,9.0,22.0,70,0.00,,,0.00,7,WeatherCatV1.15B25,2013-06-11 03:19:00,
2013-06-10 20:24:00,51.1,41.3,29.73,NW,309,17.0,21.0,69,0.00,,,0.00,5,WeatherCatV1.15B25,2013-06-11 03:24:00,
2013-06-10 20:29:00,50.8,41.0,29.74,WNW,288,14.0,17.0,69,0.00,,,0.00,7,WeatherCatV1.15B25,2013-06-11 03:29:00,
2013-06-10 20:34:00,50.7,39.0,29.74,WSW,256,3.0,15.0,64,0.00,,,0.00,0,WeatherCatV1.15B25,2013-06-11 03:34:00,
2013-06-10 20:39:00,50.5,38.0,29.74,West,262,7.0,15.0,62,0.00,,,0.00,0,WeatherCatV1.15B25,2013-06-11 03:39:00,
2013-06-10 20:44:00,50.4,37.0,29.75,WSW,245,5.0,7.0,60,0.00,,,0.00,0,WeatherCatV1.15B25,2013-06-11 03:44:00,
2013-06-10 20:49:00,50.4,36.2,29.75,WSW,237,6.0,13.0,58,0.00,,,0.00,0,WeatherCatV1.15B25,2013-06-11 03:49:00,
2013-06-10 20:54:00,50.2,36.4,29.75,WSW,242,4.0,13.0,59,0.00,,,0.00,0,WeatherCatV1.15B25,2013-06-11 03:54:00,
2013-06-10 20:59:00,50.4,37.0,29.75,WNW,283,7.0,12.0,60,0.00,,,0.00,0,WeatherCatV1.15B25,2013-06-11 03:59:00,
2013-06-10 21:01:00,50.4,36.6,29.75,WNW,283,10.0,12.0,59,0.00,,,0.00,0,WeatherCatV1.15B25,2013-06-11 04:01:00,
2013-06-10 21:03:00,50.4,37.0,29.75,SW,236,5.0,15.0,60,0.00,,,0.00,0,WeatherCatV1.15B25,2013-06-11 04:03:00,
2013-06-10 21:06:00,50.4,37.0,29.75,WSW,254,12.0,16.0,60,0.00,,,0.00,0,WeatherCatV1.15B25,2013-06-11 04:06:00,
2013-06-10 21:07:00,50.4,36.6,29.75,SW,235,4.0,16.0,59,0.00,,,0.00,0,WeatherCatV1.15B25,2013-06-11 04:07:00,
2013-06-10 21:11:00,50.4,37.0,29.75,WNW,299,10.0,15.0,60,0.00,,,0.00,0,WeatherCatV1.15B25,2013-06-11 04:11:00,
2013-06-10 21:16:00,50.4,36.6,29.75,WNW,288,11.0,16.0,59,0.00,,,0.00,0,WeatherCatV1.15B25,2013-06-11 04:16:00,
2013-06-10 21:21:00,50.4,37.0,29.75,West,262,8.0,10.0,60,0.00,,,0.00,0,WeatherCatV1.15B25,2013-06-11 04:21:00,
2013-06-10 21:26:00,50.2,37.3,29.75,WSW,243,16.0,16.0,61,0.00,,,0.00,0,WeatherCatV1.15B25,2013-06-11 04:26:00,
2013-06-10 21:31:00,50.2,37.3,29.75,WNW,283,15.0,18.0,61,0.00,,,0.00,0,WeatherCatV1.15B25,2013-06-11 04:31:00,
2013-06-10 21:36:00,50.5,37.6,29.75,NW,308,10.0,16.0,61,0.00,,,0.00,0,WeatherCatV1.15B25,2013-06-11 04:36:00,
2013-06-10 21:41:00,50.8,37.8,29.75,WNW,288,9.0,16.0,61,0.00,,,0.00,0,WeatherCatV1.15B25,2013-06-11 04:41:00,
2013-06-10 21:46:00,51.1,37.7,29.75,NW,307,10.0,13.0,60,0.00,,,0.00,0,WeatherCatV1.15B25,2013-06-11 04:46:00,
2013-06-10 21:51:00,51.3,37.9,29.75,WNW,283,11.0,17.0,60,0.00,,,0.00,0,WeatherCatV1.15B25,2013-06-11 04:51:00,
2013-06-10 21:56:00,51.3,38.3,29.75,West,271,18.0,21.0,61,0.00,,,0.00,0,WeatherCatV1.15B25,2013-06-11 04:56:00,
2013-06-10 22:02:00,51.4,38.4,29.76,WNW,283,15.0,16.0,61,0.00,,,0.00,0,WeatherCatV1.15B25,2013-06-11 05:02:00,
2013-06-10 22:07:00,51.6,38.6,29.76,WNW,283,9.0,20.0,61,0.00,,,0.00,0,WeatherCatV1.15B25,2013-06-11 05:07:00,
2013-06-10 22:12:00,51.6,38.6,29.76,West,271,11.0,15.0,61,0.00,,,0.00,0,WeatherCatV1.15B25,2013-06-11 05:12:00,
2013-06-10 22:17:00,51.6,38.6,29.74,WNW,283,8.0,13.0,61,0.00,,,0.00,0,WeatherCatV1.15B25,2013-06-11 05:17:00,
2013-06-10 22:22:00,51.7,38.7,29.74,WSW,245,11.0,16.0,61,0.00,,,0.00,0,WeatherCatV1.15B25,2013-06-11 05:22:00,
2013-06-10 22:27:00,51.7,38.7,29.74,SSW,203,10.0,13.0,61,0.00,,,0.00,0,WeatherCatV1.15B25,2013-06-11 05:27:00,
2013-06-10 22:32:00,51.7,38.7,29.74,WNW,299,9.0,15.0,61,0.00,,,0.00,0,WeatherCatV1.15B25,2013-06-11 05:32:00,
2013-06-10 22:37:00,51.7,39.1,29.74,WNW,303,12.0,21.0,62,0.00,,,0.00,0,WeatherCatV1.15B25,2013-06-11 05:37:00,
2013-06-10 22:42:00,51.6,39.0,29.74,West,279,13.0,21.0,62,0.00,,,0.00,0,WeatherCatV1.15B25,2013-06-11 05:42:00,
2013-06-10 22:47:00,51.6,39.0,29.75,West,268,6.0,18.0,62,0.00,,,0.00,0,WeatherCatV1.15B25,2013-06-11 05:47:00,
2013-06-10 22:52:00,51.4,39.2,29.75,West,270,7.0,14.0,63,0.00,,,0.00,0,WeatherCatV1.15B25,2013-06-11 05:52:00,
2013-06-10 22:57:00,51.4,39.2,29.75,WNW,283,9.0,18.0,63,0.00,,,0.00,0,WeatherCatV1.15B25,2013-06-11 05:57:00,
2013-06-10 23:02:00,51.3,39.5,29.76,WNW,293,9.0,18.0,64,0.00,,,0.00,0,WeatherCatV1.15B25,2013-06-11 06:02:00,
2013-06-10 23:07:00,51.4,39.6,29.76,WSW,253,13.0,19.0,64,0.00,,,0.00,0,WeatherCatV1.15B25,2013-06-11 06:07:00,
2013-06-10 23:12:00,51.4,39.2,29.76,WNW,293,10.0,21.0,63,0.00,,,0.00,0,WeatherCatV1.15B25,2013-06-11 06:12:00,
2013-06-10 23:17:00,51.6,39.4,29.76,WSW,258,9.0,17.0,63,0.00,,,0.00,0,WeatherCatV1.15B25,2013-06-11 06:17:00,
2013-06-10 23:22:00,51.4,38.8,29.76,WNW,288,10.0,19.0,62,0.00,,,0.00,0,WeatherCatV1.15B25,2013-06-11 06:22:00,
2013-06-10 23:27:00,51.4,38.8,29.76,WSW,255,4.0,18.0,62,0.00,,,0.00,0,WeatherCatV1.15B25,2013-06-11 06:27:00,
2013-06-10 23:32:00,51.3,38.7,29.76,WNW,283,10.0,13.0,62,0.00,,,0.00,0,WeatherCatV1.15B25,2013-06-11 06:32:00,
2013-06-10 23:37:00,51.3,38.7,29.76,WNW,303,12.0,18.0,62,0.00,,,0.00,0,WeatherCatV1.15B25,2013-06-11 06:37:00,
2013-06-10 23:42:00,51.1,38.5,29.76,SW,234,7.0,16.0,62,0.00,,,0.00,0,WeatherCatV1.15B25,2013-06-11 06:42:00,
2013-06-10 23:48:00,51.1,38.5,29.75,WSW,249,6.0,11.0,62,0.00,,,0.00,0,WeatherCatV1.15B25,2013-06-11 06:48:00,
2013-06-10 23:53:00,51.3,38.7,29.75,WSW,251,4.0,13.0,62,0.00,,,0.00,0,WeatherCatV1.15B25,2013-06-11 06:53:00,
2013-06-10 23:58:00,51.4,38.8,29.75,West,259,5.0,13.0,62,0.00,,,0.00,0,WeatherCatV1.15B25,2013-06-11 06:58:00,